Time;durP1;ratioP1;P1;durP2;ratioP2;P2;SDS_P1;SDS_P2;PMS_P1;PMS_P2;Temp;Humidity;BMP_temperature;BMP_pressure;BME280_temperature;BME280_humidity;BME280_pressure;Samples;Min_cycle;Max_cycle;Signal;HPM_P1;HPM_P2
2022/06/09 00:01:31;;;;;;;5.15;4.40;;;19.40;61.30;;;;;;6195272;23;20134;-86
2022/06/09 00:04:18;;;;;;;6.22;4.25;;;19.30;61.20;;;;;;6195175;23;20153;-87
2022/06/09 00:06:48;;;;;;;4.63;4.13;;;19.40;61.40;;;;;;6193214;23;20157;-86
2022/06/09 00:09:15;;;;;;;4.65;4.22;;;19.30;61.30;;;;;;6195799;23;20188;-86
2022/06/09 00:11:43;;;;;;;4.40;4.00;;;19.30;61.30;;;;;;6167201;23;20174;-86
2022/06/09 00:14:10;;;;;;;4.72;4.20;;;19.30;61.40;;;;;;6165005;23;20225;-86
2022/06/09 00:16:36;;;;;;;5.13;4.63;;;19.40;61.40;;;;;;6219659;23;20129;-86
2022/06/09 00:19:02;;;;;;;4.82;4.32;;;19.40;62.30;;;;;;6170014;23;20137;-85
2022/06/09 00:21:28;;;;;;;5.00;4.50;;;19.30;61.40;;;;;;6195191;23;20208;-85
2022/06/09 00:23:53;;;;;;;4.45;4.05;;;19.30;61.40;;;;;;6194681;23;20180;-86
2022/06/09 00:26:19;;;;;;;4.47;4.07;;;19.30;61.40;;;;;;6220134;23;20133;-86
2022/06/09 00:28:46;;;;;;;4.78;4.28;;;19.30;61.40;;;;;;6168559;23;20146;-86
2022/06/09 00:31:13;;;;;;;4.45;4.05;;;19.30;61.40;;;;;;6195311;23;20172;-86
2022/06/09 00:33:41;;;;;;;5.03;4.15;;;19.40;61.40;;;;;;6170447;23;20138;-86
2022/06/09 00:36:07;;;;;;;4.95;4.00;;;19.40;61.50;;;;;;6219461;23;20137;-86
2022/06/09 00:38:33;;;;;;;4.80;4.30;;;19.30;61.40;;;;;;6194940;23;20142;-86
2022/06/09 00:40:59;;;;;;;5.15;4.20;;;19.40;61.60;;;;;;6194653;23;20148;-86
2022/06/09 00:43:26;;;;;;;5.68;4.22;;;19.30;61.50;;;;;;6194661;23;20137;-86
2022/06/09 00:46:05;;;;;;;5.20;4.40;;;19.30;61.50;;;;;;6219471;23;20134;-86
2022/06/09 00:48:45;;;;;;;4.45;4.05;;;19.30;61.50;;;;;;6171192;23;20145;-86
2022/06/09 00:51:36;;;;;;;5.18;4.68;;;19.30;61.60;;;;;;6169657;23;20193;-85
2022/06/09 00:54:06;;;;;;;4.35;3.95;;;19.30;61.50;;;;;;6194968;23;20141;-86
2022/06/09 00:56:34;;;;;;;4.20;3.80;;;19.30;61.50;;;;;;6195511;23;20207;-86
2022/06/09 00:59:00;;;;;;;4.50;4.10;;;19.30;61.50;;;;;;6194422;23;20130;-86
2022/06/09 01:01:26;;;;;;;4.82;4.28;;;19.30;61.50;;;;;;6169718;23;20152;-86
2022/06/09 01:03:57;;;;;;;4.88;4.38;;;19.30;61.50;;;;;;6194549;23;20145;-86
2022/06/09 01:06:26;;;;;;;4.88;4.38;;;19.30;61.50;;;;;;6194976;23;20185;-86
2022/06/09 01:09:10;;;;;;;6.28;4.70;;;19.30;61.50;;;;;;6219295;23;20157;-86
2022/06/09 01:11:35;;;;;;;4.38;3.97;;;19.30;61.60;;;;;;6219242;23;20168;-85
2022/06/09 01:14:01;;;;;;;4.35;3.95;;;19.30;61.60;;;;;;6169603;23;20145;-85
2022/06/09 01:16:49;;;;;;;4.50;4.10;;;19.30;61.50;;;;;;6194284;23;20569;-86
2022/06/09 01:19:49;;;;;;;4.75;4.25;;;19.30;61.50;;;;;;6221480;23;20133;-86
2022/06/09 01:22:55;;;;;;;4.70;4.30;;;19.30;61.80;;;;;;6245841;23;20156;-86
2022/06/09 01:25:59;;;;;;;4.32;3.92;;;19.30;61.60;;;;;;6181712;23;20236;-86
2022/06/09 01:28:48;;;;;;;4.53;4.13;;;19.30;61.60;;;;;;6219207;23;20156;-85
2022/06/09 01:31:18;;;;;;;4.70;4.20;;;19.30;61.60;;;;;;6219291;23;20169;-86
2022/06/09 01:33:49;;;;;;;5.72;4.60;;;19.30;61.60;;;;;;6194558;23;20137;-86
2022/06/09 01:36:22;;;;;;;4.50;4.10;;;19.30;61.50;;;;;;6170275;23;20232;-86
2022/06/09 01:38:50;;;;;;;4.80;4.30;;;19.30;61.60;;;;;;6194811;23;20136;-86
2022/06/09 01:41:16;;;;;;;4.90;4.40;;;19.30;61.60;;;;;;6169707;23;20149;-85
2022/06/09 01:43:43;;;;;;;5.25;4.30;;;19.30;61.60;;;;;;6169494;23;20153;-86
2022/06/09 01:46:16;;;;;;;4.85;4.30;;;19.30;61.60;;;;;;6169764;23;20176;-86
2022/06/09 01:48:42;;;;;;;4.45;4.05;;;19.20;61.60;;;;;;6195064;23;20145;-85
2022/06/09 01:51:13;;;;;;;5.10;4.60;;;19.20;61.60;;;;;;6172723;23;20185;-86
2022/06/09 01:53:45;;;;;;;4.47;4.07;;;19.20;61.60;;;;;;6164724;23;20162;-86
2022/06/09 01:56:15;;;;;;;4.97;4.47;;;19.20;61.70;;;;;;6140461;23;20236;-86
2022/06/09 01:59:05;;;;;;;4.72;4.25;;;19.20;61.60;;;;;;6164279;23;20593;-86
2022/06/09 02:01:38;;;;;;;4.80;4.30;;;19.30;61.80;;;;;;6165675;23;20154;-86
2022/06/09 02:04:06;;;;;;;4.88;4.30;;;19.30;61.80;;;;;;6164772;23;20138;-85
2022/06/09 02:06:34;;;;;;;4.45;4.05;;;19.30;61.80;;;;;;6164333;23;20149;-85
2022/06/09 02:09:00;;;;;;;4.65;4.15;;;19.20;61.70;;;;;;6163938;23;20472;-86
2022/06/09 02:11:27;;;;;;;5.00;4.50;;;19.20;61.70;;;;;;6164009;23;20260;-85
2022/06/09 02:13:53;;;;;;;4.70;4.20;;;19.30;61.70;;;;;;6189107;23;20169;-86
2022/06/09 02:16:21;;;;;;;5.47;4.28;;;19.20;61.70;;;;;;6140030;23;20200;-86
2022/06/09 02:18:51;;;;;;;4.93;4.10;;;19.30;61.80;;;;;;6139914;23;20149;-86
2022/06/09 02:21:25;;;;;;;5.05;4.50;;;19.20;61.70;;;;;;6139508;23;20150;-87
2022/06/09 02:23:51;;;;;;;4.50;4.07;;;19.30;61.80;;;;;;6139660;23;20180;-86
2022/06/09 02:26:17;;;;;;;4.35;3.95;;;19.20;61.60;;;;;;6189618;23;20185;-86
2022/06/09 02:28:43;;;;;;;4.88;4.38;;;19.20;61.60;;;;;;6164180;23;20181;-85
2022/06/09 02:31:09;;;;;;;4.78;4.30;;;19.20;61.60;;;;;;6165947;23;20162;-85
2022/06/09 02:33:36;;;;;;;4.95;4.35;;;19.20;61.70;;;;;;6166294;23;20134;-86
2022/06/09 02:36:02;;;;;;;5.43;4.55;;;19.30;61.80;;;;;;6165791;23;20629;-85
2022/06/09 02:38:27;;;;;;;4.78;4.38;;;19.20;61.70;;;;;;6190662;23;20166;-86
2022/06/09 02:40:54;;;;;;;6.45;4.35;;;19.20;61.70;;;;;;6191116;23;20134;-85
2022/06/09 02:43:21;;;;;;;4.70;4.30;;;19.20;61.70;;;;;;6166378;23;20554;-86
2022/06/09 02:45:48;;;;;;;4.60;4.20;;;19.20;61.60;;;;;;6141008;23;20466;-86
2022/06/09 02:48:18;;;;;;;5.07;4.57;;;19.20;62.50;;;;;;6165408;23;20223;-87
2022/06/09 02:50:43;;;;;;;4.45;4.05;;;19.20;61.70;;;;;;6151771;23;20251;-86
2022/06/09 02:53:09;;;;;;;4.88;4.40;;;19.20;61.70;;;;;;6165479;23;20158;-86
2022/06/09 02:55:36;;;;;;;4.57;4.07;;;19.30;61.80;;;;;;6190187;23;20142;-86
2022/06/09 02:58:02;;;;;;;4.80;4.30;;;19.20;61.80;;;;;;6190611;23;20146;-86
2022/06/09 03:00:27;;;;;;;4.40;4.00;;;19.30;61.80;;;;;;6165500;23;20459;-86
2022/06/09 03:02:56;;;;;;;4.85;4.35;;;19.20;61.70;;;;;;6165266;23;20143;-85
2022/06/09 03:05:23;;;;;;;4.78;4.28;;;19.20;61.70;;;;;;6215333;23;20139;-86
2022/06/09 03:07:49;;;;;;;4.65;4.25;;;19.20;61.70;;;;;;6190026;23;20510;-86
2022/06/09 03:10:15;;;;;;;4.65;4.25;;;19.20;61.60;;;;;;6190794;23;20142;-86
2022/06/09 03:12:41;;;;;;;4.30;3.90;;;19.20;61.70;;;;;;6190761;23;20147;-86
2022/06/09 03:15:08;;;;;;;4.10;3.70;;;19.10;61.60;;;;;;6215493;23;20215;-86
2022/06/09 03:17:35;;;;;;;4.72;4.32;;;19.30;61.80;;;;;;6215157;23;20214;-86
2022/06/09 03:20:03;;;;;;;4.95;4.45;;;19.20;61.60;;;;;;6189897;23;20138;-86
2022/06/09 03:22:30;;;;;;;5.72;4.40;;;19.20;61.70;;;;;;6190143;23;20130;-87
2022/06/09 03:24:56;;;;;;;4.50;4.10;;;19.10;61.70;;;;;;6215308;23;20150;-87
2022/06/09 03:27:23;;;;;;;4.53;4.13;;;19.20;61.60;;;;;;6190479;23;20463;-86
2022/06/09 03:29:51;;;;;;;4.60;4.20;;;19.20;61.60;;;;;;6165543;23;20154;-86
2022/06/09 03:32:22;;;;;;;4.82;4.32;;;19.20;61.60;;;;;;6215118;23;20166;-86
2022/06/09 03:34:51;;;;;;;4.55;4.15;;;19.30;61.60;;;;;;6190241;23;20143;-86
2022/06/09 03:37:18;;;;;;;4.47;4.07;;;19.30;61.60;;;;;;6215238;23;20228;-87
2022/06/09 03:39:43;;;;;;;4.80;4.20;;;19.30;61.50;;;;;;6215041;23;20127;-86
2022/06/09 03:42:11;;;;;;;4.68;4.28;;;19.30;61.40;;;;;;6214994;23;20134;-87
2022/06/09 03:44:37;;;;;;;4.57;4.18;;;19.30;61.40;;;;;;6190082;23;20153;-86
2022/06/09 03:47:03;;;;;;;4.80;4.30;;;19.40;61.40;;;;;;6165328;23;20154;-87
2022/06/09 03:49:29;;;;;;;4.38;3.97;;;19.30;61.30;;;;;;6190242;23;20173;-85
2022/06/09 03:52:05;;;;;;;4.70;4.10;;;19.30;61.30;;;;;;6170423;23;20189;-86
2022/06/09 03:54:32;;;;;;;4.50;4.10;;;19.40;61.30;;;;;;6173703;23;20240;-86
2022/06/09 03:56:58;;;;;;;4.20;3.80;;;19.40;61.20;;;;;;6220216;23;20140;-87
2022/06/09 03:59:24;;;;;;;4.75;4.30;;;19.40;61.20;;;;;;6194957;23;20236;-86
2022/06/09 04:01:49;;;;;;;5.10;4.10;;;19.40;61.10;;;;;;6170872;23;20150;-86
2022/06/09 04:04:16;;;;;;;4.45;4.05;;;19.40;61.20;;;;;;6220296;23;20137;-86
2022/06/09 04:06:44;;;;;;;5.00;4.50;;;19.40;61.20;;;;;;6195338;23;20192;-86
2022/06/09 04:09:10;;;;;;;4.57;4.13;;;19.30;61.10;;;;;;6195822;23;20161;-87
2022/06/09 04:11:35;;;;;;;4.50;4.10;;;19.30;61.20;;;;;;6195381;23;20166;-87
2022/06/09 04:14:02;;;;;;;4.35;3.95;;;19.40;61.30;;;;;;6220198;23;20130;-86
2022/06/09 04:16:31;;;;;;;4.50;4.10;;;19.30;61.20;;;;;;6195175;23;20138;-86
2022/06/09 04:19:02;;;;;;;4.30;3.90;;;19.40;61.20;;;;;;6195544;23;20135;-85
2022/06/09 04:21:29;;;;;;;4.18;3.78;;;19.40;61.10;;;;;;6170995;23;20195;-85
2022/06/09 04:23:55;;;;;;;4.70;4.18;;;19.30;61.00;;;;;;6195139;23;20596;-86
2022/06/09 04:26:23;;;;;;;4.10;3.70;;;19.30;61.10;;;;;;6170458;23;20172;-86
2022/06/09 04:28:50;;;;;;;4.80;4.30;;;19.30;61.10;;;;;;6195020;23;20568;-87
2022/06/09 04:31:19;;;;;;;4.43;4.03;;;19.40;61.30;;;;;;6220113;23;20165;-86
2022/06/09 04:33:46;;;;;;;4.60;4.18;;;19.40;61.30;;;;;;6194579;23;20150;-86
2022/06/09 04:36:14;;;;;;;4.60;4.13;;;19.30;61.30;;;;;;6170142;23;20195;-86
2022/06/09 04:38:39;;;;;;;4.80;3.78;;;19.20;61.20;;;;;;6245168;23;20236;-86
2022/06/09 04:41:09;;;;;;;4.20;3.80;;;19.30;61.30;;;;;;6170128;23;20227;-86
2022/06/09 04:43:37;;;;;;;4.75;4.25;;;19.40;61.30;;;;;;6171823;23;20471;-86
2022/06/09 04:46:05;;;;;;;4.35;3.95;;;19.30;61.10;;;;;;6169777;23;20157;-86
2022/06/09 04:48:33;;;;;;;4.93;4.43;;;19.30;61.20;;;;;;6194806;23;20207;-87
2022/06/09 04:51:00;;;;;;;4.53;4.10;;;19.30;61.20;;;;;;6219212;23;20189;-86
2022/06/09 04:53:26;;;;;;;4.38;3.97;;;19.30;61.20;;;;;;6169851;23;20149;-86
2022/06/09 04:55:52;;;;;;;4.25;3.85;;;19.30;61.20;;;;;;6194601;23;20137;-86
2022/06/09 04:58:18;;;;;;;4.13;3.72;;;19.30;61.30;;;;;;6169625;23;20154;-86
2022/06/09 05:00:45;;;;;;;4.45;3.95;;;19.40;61.30;;;;;;6169737;23;20255;-86
2022/06/09 05:03:11;;;;;;;4.10;3.70;;;19.40;61.30;;;;;;6219493;23;20144;-86
2022/06/09 05:05:42;;;;;;;4.43;3.90;;;19.40;61.30;;;;;;6219675;23;20203;-85
2022/06/09 05:08:07;;;;;;;4.10;3.70;;;19.40;61.30;;;;;;6195285;23;20544;-86
2022/06/09 05:10:33;;;;;;;4.45;4.05;;;19.40;61.30;;;;;;6194498;23;20153;-86
2022/06/09 05:12:59;;;;;;;4.30;3.78;;;19.40;61.40;;;;;;6169495;23;20153;-86
2022/06/09 05:15:26;;;;;;;4.32;3.90;;;19.40;61.50;;;;;;6194504;23;20159;-86
2022/06/09 05:17:52;;;;;;;4.15;3.70;;;19.40;61.60;;;;;;6194693;23;20454;-86
2022/06/09 05:20:20;;;;;;;4.13;3.72;;;19.40;61.70;;;;;;6194531;23;20130;-86
2022/06/09 05:22:47;;;;;;;4.50;3.95;;;19.30;61.60;;;;;;6194555;23;20300;-86
2022/06/09 05:25:13;;;;;;;4.40;4.00;;;19.30;61.70;;;;;;6170130;23;20168;-86
2022/06/09 05:27:40;;;;;;;3.95;3.55;;;19.40;61.70;;;;;;6194603;23;20462;-86
2022/06/09 05:30:08;;;;;;;4.10;3.70;;;19.40;61.90;;;;;;6169424;23;20545;-86
2022/06/09 05:32:35;;;;;;;3.90;3.58;;;19.40;61.90;;;;;;6170021;23;20201;-85
2022/06/09 05:35:02;;;;;;;4.30;3.72;;;19.30;61.90;;;;;;6194811;23;20228;-87
2022/06/09 05:44:50;;;;;;;4.25;3.85;;;19.30;61.90;;;;;;6246070;23;20126;-86
2022/06/09 05:45:39;;;;;;;3.90;3.50;;;19.30;62.00;;;;;;6200006;23;20133;-85
2022/06/09 05:48:05;;;;;;;4.18;3.65;;;19.40;62.10;;;;;;6170156;23;20150;-86
2022/06/09 05:50:30;;;;;;;3.97;3.60;;;19.30;62.00;;;;;;6180827;23;20216;-86
2022/06/09 05:52:56;;;;;;;4.32;3.92;;;19.40;62.20;;;;;;6164261;23;20146;-86
2022/06/09 05:55:22;;;;;;;4.32;3.92;;;19.30;62.10;;;;;;6139769;23;20150;-85
2022/06/09 05:57:48;;;;;;;4.18;3.78;;;19.30;62.10;;;;;;6164293;23;20180;-86
2022/06/09 06:00:16;;;;;;;3.78;3.38;;;19.30;62.20;;;;;;6164018;23;20177;-86
2022/06/09 06:02:43;;;;;;;4.60;3.50;;;19.30;62.10;;;;;;6189299;23;20157;-86
2022/06/09 06:06:33;;;;;;;3.95;3.55;;;19.40;62.10;;;;;;6165294;23;20149;-86
2022/06/09 06:07:54;;;;;;;3.80;3.40;;;19.40;62.20;;;;;;6174320;23;20154;-86
2022/06/09 06:10:20;;;;;;;4.18;3.60;;;19.40;62.20;;;;;;6141310;23;20153;-86
2022/06/09 06:12:46;;;;;;;3.70;3.40;;;19.30;62.10;;;;;;6141227;23;20153;-87
2022/06/09 06:15:12;;;;;;;3.53;3.22;;;19.30;62.10;;;;;;6166198;23;20131;-86
2022/06/09 06:17:38;;;;;;;4.75;4.03;;;19.40;62.20;;;;;;6166423;23;20154;-86
2022/06/09 06:20:04;;;;;;;4.22;3.83;;;19.40;62.20;;;;;;6166012;23;20141;-86
2022/06/09 06:22:29;;;;;;;4.07;3.67;;;19.40;62.20;;;;;;6166603;23;20146;-86
2022/06/09 06:24:59;;;;;;;4.13;3.70;;;19.40;62.10;;;;;;6160556;23;20147;-86
2022/06/09 06:27:25;;;;;;;3.97;3.58;;;19.40;62.10;;;;;;6136694;23;20150;-86
2022/06/09 06:29:51;;;;;;;3.90;3.58;;;19.40;62.00;;;;;;6165224;23;20196;-87
2022/06/09 06:32:17;;;;;;;4.07;3.67;;;19.50;62.00;;;;;;6141015;23;20184;-86
2022/06/09 06:34:43;;;;;;;4.15;3.75;;;19.40;62.00;;;;;;6165682;23;20150;-85
2022/06/09 06:37:11;;;;;;;4.15;3.70;;;19.50;61.80;;;;;;6141713;23;20228;-86
2022/06/09 06:39:36;;;;;;;3.88;3.47;;;19.40;61.80;;;;;;6165816;23;20153;-86
2022/06/09 06:42:02;;;;;;;4.22;3.83;;;19.40;61.90;;;;;;6191609;23;20233;-86
2022/06/09 06:44:30;;;;;;;3.85;3.45;;;19.40;61.90;;;;;;6165781;23;20150;-86
2022/06/09 06:46:57;;;;;;;4.15;3.75;;;19.40;62.00;;;;;;6129026;23;20142;-86
2022/06/09 06:49:22;;;;;;;4.40;4.00;;;19.50;61.90;;;;;;6135961;23;20201;-87
2022/06/09 06:51:49;;;;;;;4.03;3.63;;;19.40;61.80;;;;;;6186521;23;20203;-85
2022/06/09 06:54:14;;;;;;;4.03;3.63;;;19.40;61.70;;;;;;6191016;23;20130;-86
2022/06/09 06:56:40;;;;;;;4.00;3.60;;;19.50;61.80;;;;;;6190537;23;20200;-86
2022/06/09 06:59:06;;;;;;;3.58;3.28;;;19.50;61.80;;;;;;6165588;23;20157;-86
2022/06/09 07:01:31;;;;;;;4.55;4.10;;;19.50;61.80;;;;;;6191005;23;20169;-86
2022/06/09 07:03:58;;;;;;;4.10;3.70;;;19.50;61.70;;;;;;6165739;23;20153;-87
2022/06/09 07:06:25;;;;;;;4.05;3.65;;;19.50;61.80;;;;;;6190373;23;20134;-86
2022/06/09 07:08:52;;;;;;;4.13;3.70;;;19.50;61.80;;;;;;6165925;23;20208;-86
2022/06/09 07:11:19;;;;;;;5.45;3.88;;;19.40;61.70;;;;;;6165518;23;20174;-86
2022/06/09 07:13:45;;;;;;;3.92;3.53;;;19.50;61.70;;;;;;6165607;23;20160;-87
2022/06/09 07:16:12;;;;;;;4.45;4.05;;;19.50;61.70;;;;;;6190243;23;20158;-88
2022/06/09 07:18:42;;;;;;;3.72;3.33;;;19.50;61.70;;;;;;6165880;23;20153;-85
2022/06/09 07:21:09;;;;;;;3.80;3.50;;;19.50;61.60;;;;;;6190389;23;20145;-86
2022/06/09 07:23:35;;;;;;;4.00;3.60;;;19.60;61.60;;;;;;6190399;23;20135;-86
2022/06/09 07:26:02;;;;;;;4.10;3.70;;;19.50;61.60;;;;;;6165551;23;20154;-86
2022/06/09 07:28:28;;;;;;;4.55;4.00;;;19.50;61.60;;;;;;6166214;23;20478;-86
2022/06/09 07:30:56;;;;;;;3.97;3.58;;;19.60;61.60;;;;;;6190043;23;20178;-86
2022/06/09 07:33:24;;;;;;;4.05;3.53;;;19.50;61.70;;;;;;6165488;23;20150;-87
2022/06/09 07:35:53;;;;;;;3.88;3.53;;;19.50;61.60;;;;;;6215358;23;20266;-87
2022/06/09 07:38:19;;;;;;;3.92;3.40;;;19.50;61.60;;;;;;6165505;23;20185;-86
2022/06/09 07:40:45;;;;;;;3.70;3.38;;;19.50;61.60;;;;;;6165176;23;20146;-86
2022/06/09 07:43:11;;;;;;;3.90;3.60;;;19.50;61.60;;;;;;6190114;23;20608;-86
2022/06/09 07:45:37;;;;;;;3.90;3.45;;;19.50;61.50;;;;;;6165233;23;20150;-86
2022/06/09 07:48:04;;;;;;;4.00;3.60;;;19.50;61.50;;;;;;6165276;23;20158;-87
2022/06/09 07:50:31;;;;;;;3.58;3.10;;;19.50;61.60;;;;;;6165099;23;20667;-86
2022/06/09 07:52:58;;;;;;;4.07;3.67;;;19.60;61.30;;;;;;6189841;23;20161;-86
2022/06/09 07:55:24;;;;;;;3.35;3.05;;;19.60;61.20;;;;;;6164933;23;20177;-87
2022/06/09 07:57:50;;;;;;;3.28;2.97;;;19.60;61.00;;;;;;6189651;23;20153;-87
2022/06/09 08:00:17;;;;;;;4.03;3.60;;;19.60;61.00;;;;;;6214962;23;20131;-86
2022/06/09 08:02:43;;;;;;;4.18;3.78;;;19.70;61.20;;;;;;6215317;23;20134;-86
2022/06/09 08:05:10;;;;;;;4.28;3.88;;;19.70;61.30;;;;;;6167263;23;20150;-86
2022/06/09 08:07:37;;;;;;;4.03;3.67;;;19.60;61.40;;;;;;6216183;23;20130;-87
2022/06/09 08:10:05;;;;;;;4.07;3.67;;;19.60;61.30;;;;;;6216158;23;20454;-87
2022/06/09 08:12:30;;;;;;;4.40;4.00;;;19.60;61.50;;;;;;6205544;23;20241;-86
2022/06/09 08:14:56;;;;;;;3.95;3.55;;;19.50;61.40;;;;;;6124822;23;20582;-86
2022/06/09 08:17:23;;;;;;;3.88;3.50;;;19.50;61.60;;;;;;6158418;23;20590;-86
2022/06/09 08:19:49;;;;;;;3.88;3.53;;;19.50;61.80;;;;;;6215290;23;20131;-86
2022/06/09 08:22:15;;;;;;;3.80;3.50;;;19.50;61.90;;;;;;6191967;23;20166;-86
2022/06/09 08:24:41;;;;;;;4.32;3.92;;;19.50;62.00;;;;;;6189857;23;20596;-85
2022/06/09 08:27:08;;;;;;;4.20;3.80;;;19.50;62.00;;;;;;6189330;23;20232;-86
2022/06/09 08:29:35;;;;;;;4.20;3.80;;;19.50;62.00;;;;;;6214808;23;20161;-86
2022/06/09 08:32:01;;;;;;;4.38;3.97;;;19.50;61.80;;;;;;6189578;23;20197;-86
2022/06/09 08:34:26;;;;;;;4.03;3.67;;;19.60;61.80;;;;;;6214699;23;20127;-86
2022/06/09 08:36:52;;;;;;;4.93;3.53;;;19.60;61.70;;;;;;6214741;23;20135;-87
2022/06/09 08:39:19;;;;;;;4.05;3.65;;;19.60;61.80;;;;;;6190181;23;20142;-86
2022/06/09 08:42:08;;;;;;;4.95;4.10;;;19.60;61.70;;;;;;6214899;23;20218;-86
2022/06/09 08:44:45;;;;;;;5.68;3.67;;;19.50;61.60;;;;;;6190296;23;20219;-87
2022/06/09 08:47:23;;;;;;;3.97;3.58;;;19.60;61.70;;;;;;6214617;23;20558;-86
2022/06/09 08:50:05;;;;;;;5.63;4.07;;;19.60;61.70;;;;;;6188988;22;20613;-86
2022/06/09 08:52:45;;;;;;;4.63;3.50;;;19.60;61.70;;;;;;6165059;23;20182;-86
2022/06/09 08:55:25;;;;;;;4.63;3.80;;;19.60;61.80;;;;;;6165610;23;20146;-86
2022/06/09 08:57:52;;;;;;;5.40;3.67;;;19.60;61.80;;;;;;6165271;23;20569;-86
2022/06/09 09:00:23;;;;;;;3.83;3.42;;;19.60;61.70;;;;;;6190066;23;20136;-86
2022/06/09 09:02:57;;;;;;;4.05;3.50;;;19.60;61.80;;;;;;6161475;23;20492;-86
2022/06/09 09:05:33;;;;;;;4.90;3.45;;;19.60;61.80;;;;;;6163664;23;20170;-86
2022/06/09 09:08:00;;;;;;;6.18;4.05;;;19.70;61.70;;;;;;6165170;23;20145;-85
2022/06/09 09:10:32;;;;;;;4.82;4.05;;;19.70;61.60;;;;;;6164327;23;20561;-86
2022/06/09 09:13:13;;;;;;;4.25;3.85;;;19.70;61.60;;;;;;6164374;23;20452;-86
2022/06/09 09:15:42;;;;;;;4.22;3.60;;;19.70;61.50;;;;;;6191194;23;20549;-86
2022/06/09 09:18:35;;;;;;;5.28;4.30;;;19.60;61.60;;;;;;6189851;23;20156;-86
2022/06/09 09:21:27;;;;;;;4.90;3.67;;;19.60;61.70;;;;;;6166672;23;20585;-86
2022/06/09 09:24:09;;;;;;;4.40;4.00;;;19.60;61.70;;;;;;6149440;23;20236;-86
2022/06/09 09:26:46;;;;;;;4.00;3.60;;;19.60;61.60;;;;;;6142921;23;20477;-87
2022/06/09 09:29:19;;;;;;;3.58;3.28;;;19.60;61.50;;;;;;6165390;23;20138;-87
2022/06/09 09:31:51;;;;;;;3.95;3.47;;;19.60;61.60;;;;;;6141127;23;20181;-86
2022/06/09 09:34:19;;;;;;;4.10;3.70;;;19.70;61.60;;;;;;6166471;23;20138;-86
2022/06/09 09:36:48;;;;;;;4.63;3.88;;;19.60;61.60;;;;;;6164996;23;20214;-86
2022/06/09 09:39:19;;;;;;;4.10;3.70;;;19.70;61.60;;;;;;6141147;23;20158;-86
2022/06/09 09:41:45;;;;;;;4.93;3.53;;;19.70;61.60;;;;;;6168230;23;20134;-86
2022/06/09 09:44:22;;;;;;;4.05;3.65;;;19.70;61.40;;;;;;6168281;23;20134;-86
2022/06/09 09:46:51;;;;;;;3.95;3.55;;;19.70;61.30;;;;;;6143940;23;20149;-86
2022/06/09 09:49:34;;;;;;;4.22;3.53;;;19.70;61.40;;;;;;6167316;23;20181;-86
2022/06/09 09:52:00;;;;;;;4.53;4.13;;;19.70;61.70;;;;;;6162862;23;20198;-86
2022/06/09 09:54:31;;;;;;;3.60;3.30;;;19.70;61.70;;;;;;6160928;23;20205;-85
2022/06/09 09:57:17;;;;;;;3.90;3.50;;;19.70;61.60;;;;;;6136833;23;20234;-85
2022/06/09 09:59:48;;;;;;;4.40;3.95;;;19.70;61.70;;;;;;6160738;23;20226;-87
2022/06/09 10:08:43;;;;;;;4.28;3.80;;;19.70;61.60;;;;;;6195027;23;20138;-86
2022/06/09 10:14:39;;;;;;;3.95;3.50;;;19.70;61.50;;;;;;6175388;23;20469;-86
2022/06/09 10:17:18;;;;;;;3.92;3.60;;;19.70;61.70;;;;;;6160845;23;20138;-86
2022/06/09 10:19:47;;;;;;;4.10;3.70;;;19.70;61.60;;;;;;6163707;23;20158;-86
2022/06/09 10:22:19;;;;;;;4.13;3.60;;;19.70;61.50;;;;;;6142023;23;20150;-87
2022/06/09 10:25:08;;;;;;;3.83;3.53;;;19.80;61.60;;;;;;6141414;23;20178;-86
2022/06/09 10:27:35;;;;;;;4.45;3.72;;;19.80;61.60;;;;;;6173904;23;20158;-86
2022/06/09 10:30:16;;;;;;;4.07;3.67;;;19.80;61.40;;;;;;6168358;23;20135;-86
2022/06/09 10:33:08;;;;;;;4.63;3.75;;;19.80;61.30;;;;;;6170428;23;20165;-86
2022/06/09 10:36:03;;;;;;;4.35;3.60;;;19.80;61.40;;;;;;6178244;23;20465;-86
2022/06/09 10:38:40;;;;;;;3.75;3.30;;;19.90;61.20;;;;;;6193079;23;20150;-86
2022/06/09 10:41:40;;;;;;;4.28;3.60;;;19.90;61.20;;;;;;6164220;23;20266;-86
2022/06/09 10:44:45;;;;;;;4.53;4.03;;;19.90;61.20;;;;;;6011963;23;20188;-86
2022/06/09 10:55:49;;;;;;;4.53;3.88;;;20.00;60.80;;;;;;6069372;23;20149;-85
2022/06/09 10:58:22;;;;;;;4.15;3.75;;;19.90;60.90;;;;;;6044595;23;20200;-86
2022/06/09 11:00:49;;;;;;;4.68;3.58;;;19.90;60.90;;;;;;6044860;23;20153;-87
2022/06/09 11:03:19;;;;;;;4.07;3.50;;;19.90;61.00;;;;;;6043802;23;20153;-86
2022/06/09 11:06:09;;;;;;;4.82;3.90;;;19.90;60.90;;;;;;6067580;23;20142;-86
2022/06/09 11:08:57;;;;;;;4.20;3.80;;;19.80;60.90;;;;;;6043693;23;20158;-86
2022/06/09 11:11:39;;;;;;;4.05;3.65;;;19.90;61.10;;;;;;6068413;23;20169;-86
2022/06/09 11:14:29;;;;;;;4.82;4.10;;;19.90;61.40;;;;;;6068464;23;20240;-86
2022/06/09 11:17:12;;;;;;;4.63;4.13;;;19.80;61.20;;;;;;6068405;23;20157;-87
2022/06/09 11:19:54;;;;;;;4.35;3.95;;;19.80;61.30;;;;;;6044554;23;20153;-87
2022/06/09 11:22:40;;;;;;;4.32;3.90;;;19.70;61.20;;;;;;6156023;23;20139;-86
2022/06/09 11:25:34;;;;;;;4.30;3.90;;;19.80;61.30;;;;;;6156041;23;20198;-87
2022/06/09 11:28:09;;;;;;;4.30;3.75;;;19.80;61.30;;;;;;6133501;23;20222;-85
2022/06/09 11:30:48;;;;;;;5.45;3.83;;;19.80;61.30;;;;;;6129592;23;20160;-86
2022/06/09 11:33:36;;;;;;;4.20;3.80;;;19.80;61.30;;;;;;6109538;23;20638;-86
2022/06/09 11:36:23;;;;;;;5.00;4.18;;;19.80;61.30;;;;;;6082602;23;20693;-86
2022/06/09 11:39:14;;;;;;;4.53;3.88;;;19.80;61.30;;;;;;6140721;23;20485;-86
2022/06/09 11:41:45;;;;;;;4.35;3.92;;;19.90;61.20;;;;;;6194110;23;20161;-86
2022/06/09 11:44:26;;;;;;;4.45;3.90;;;19.90;60.90;;;;;;6166423;23;20135;-86
2022/06/09 11:46:53;;;;;;;4.38;3.60;;;20.10;60.40;;;;;;6165223;23;20640;-86
2022/06/09 11:49:24;;;;;;;4.50;3.90;;;20.10;60.00;;;;;;6136768;23;20163;-86
2022/06/09 11:51:50;;;;;;;4.18;3.47;;;20.30;60.00;;;;;;6216469;23;20263;-86
2022/06/09 11:54:38;;;;;;;5.72;3.85;;;20.30;60.00;;;;;;6194876;23;20520;-86
2022/06/09 11:57:19;;;;;;;6.05;4.10;;;20.30;59.80;;;;;;6195686;23;20572;-87
2022/06/09 11:59:58;;;;;;;7.10;4.55;;;20.30;59.80;;;;;;6194798;23;20462;-86
2022/06/09 12:02:45;;;;;;;7.18;4.28;;;20.30;59.80;;;;;;6219534;23;20152;-86
2022/06/09 12:05:27;;;;;;;5.97;3.95;;;20.30;59.70;;;;;;6224229;23;20145;-87
2022/06/09 12:08:18;;;;;;;9.55;4.78;;;20.40;59.80;;;;;;6195319;23;20591;-87
2022/06/09 12:11:05;;;;;;;12.93;4.00;;;20.30;59.70;;;;;;6179949;23;20539;-87
2022/06/09 12:13:54;;;;;;;7.65;3.90;;;20.40;59.80;;;;;;6196980;23;20126;-86
2022/06/09 12:16:25;;;;;;;9.23;4.03;;;20.40;59.80;;;;;;6196212;23;20156;-86
2022/06/09 12:19:19;;;;;;;7.82;4.15;;;20.30;59.90;;;;;;6171916;23;20216;-86
2022/06/09 12:21:50;;;;;;;5.72;3.90;;;20.30;59.90;;;;;;6195274;23;20187;-87
2022/06/09 12:24:23;;;;;;;9.88;4.10;;;20.30;59.80;;;;;;6194912;23;20172;-86
2022/06/09 12:26:56;;;;;;;6.70;3.92;;;20.30;59.80;;;;;;6170911;23;20160;-86
2022/06/09 12:29:37;;;;;;;7.93;4.00;;;20.40;59.60;;;;;;6171601;23;20149;-86
2022/06/09 12:32:43;;;;;;;8.60;3.83;;;20.50;59.50;;;;;;6219816;23;20191;-86
2022/06/09 12:35:42;;;;;;;7.53;3.90;;;20.50;59.60;;;;;;6228614;23;20149;-86
2022/06/09 12:38:27;;;;;;;12.02;4.10;;;20.50;59.60;;;;;;6220265;23;20145;-86
2022/06/09 12:40:56;;;;;;;9.32;4.10;;;20.40;59.70;;;;;;6196000;23;20771;-87
2022/06/09 12:43:33;;;;;;;8.38;4.25;;;20.40;60.30;;;;;;6220233;23;20141;-86
2022/06/09 12:46:02;;;;;;;7.28;4.30;;;20.40;59.60;;;;;;6196564;23;20137;-87
2022/06/09 12:48:29;;;;;;;9.20;3.97;;;20.40;59.60;;;;;;6220865;23;20134;-86
2022/06/09 12:50:55;;;;;;;10.95;4.05;;;20.40;59.40;;;;;;6156664;23;20186;-86
2022/06/09 12:53:27;;;;;;;12.18;4.35;;;20.50;59.50;;;;;;6167404;23;20146;-86
2022/06/09 12:55:57;;;;;;;9.70;4.47;;;20.40;59.60;;;;;;6167393;23;20183;-86
2022/06/09 12:58:35;;;;;;;7.80;4.18;;;20.40;59.70;;;;;;6140386;23;20170;-86
2022/06/09 13:01:03;;;;;;;9.02;4.28;;;20.50;59.50;;;;;;6135368;23;20154;-86
2022/06/09 13:03:32;;;;;;;10.63;4.55;;;20.50;59.60;;;;;;6161965;23;20567;-86
2022/06/09 13:06:10;;;;;;;9.98;4.30;;;20.50;59.40;;;;;;6152263;23;20138;-86
2022/06/09 13:08:42;;;;;;;5.47;3.90;;;20.50;59.50;;;;;;6158416;23;20138;-86
2022/06/09 13:11:16;;;;;;;6.13;4.18;;;20.40;59.50;;;;;;6163230;23;20216;-86
2022/06/09 13:13:43;;;;;;;9.68;4.30;;;20.50;59.40;;;;;;6164661;23;20175;-86
2022/06/09 13:16:15;;;;;;;7.43;4.22;;;20.50;59.50;;;;;;6164325;23;20141;-86
2022/06/09 13:18:44;;;;;;;6.45;3.85;;;20.50;59.60;;;;;;6139838;23;20570;-86
2022/06/09 13:21:18;;;;;;;6.10;4.10;;;20.50;59.50;;;;;;6140271;23;20154;-86
2022/06/09 13:23:50;;;;;;;9.05;4.18;;;20.60;59.30;;;;;;6139375;23;20153;-86
2022/06/09 13:26:20;;;;;;;10.75;3.90;;;20.50;59.30;;;;;;6163905;23;20150;-87
2022/06/09 13:28:48;;;;;;;6.40;4.05;;;20.60;59.40;;;;;;6139641;23;20145;-87
2022/06/09 13:31:34;;;;;;;4.60;3.67;;;20.50;59.30;;;;;;6164410;23;20667;-86